Time;durP1;ratioP1;P1;durP2;ratioP2;P2;SDS_P1;SDS_P2;PMS_P1;PMS_P2;Temp;Humidity;BMP_temperature;BMP_pressure;BME280_temperature;BME280_humidity;BME280_pressure;Samples;Min_cycle;Max_cycle;Signal;HPM_P1;HPM_P2
2023/07/11 00:02:10;;;;;;;1.00;0.40;;;19.40;99.90;;;;;;5017605;28;20104;-78
2023/07/11 00:04:36;;;;;;;2.45;0.30;;;19.30;99.90;;;;;;5026858;28;20040;-79
2023/07/11 00:07:03;;;;;;;1.52;0.30;;;19.20;99.90;;;;;;5001545;28;20038;-77
2023/07/11 00:09:28;;;;;;;1.25;0.40;;;19.20;99.90;;;;;;5012699;28;20044;-78
2023/07/11 00:11:54;;;;;;;1.00;0.30;;;19.20;99.90;;;;;;5014709;28;20037;-78
2023/07/11 00:14:20;;;;;;;1.23;0.40;;;19.20;99.90;;;;;;5017752;28;20022;-79
2023/07/11 00:16:46;;;;;;;1.40;0.40;;;19.20;99.90;;;;;;5019792;28;20111;-78
2023/07/11 00:19:12;;;;;;;1.27;0.30;;;19.10;99.90;;;;;;5032793;28;20092;-78
2023/07/11 00:21:38;;;;;;;0.82;0.20;;;19.10;99.90;;;;;;5022537;28;20053;-79
2023/07/11 00:24:05;;;;;;;2.20;0.32;;;19.10;99.90;;;;;;5010871;28;20076;-78
2023/07/11 00:26:33;;;;;;;1.23;0.30;;;19.10;99.90;;;;;;5034688;28;20488;-78
2023/07/11 00:29:01;;;;;;;1.60;0.30;;;19.10;99.90;;;;;;5007420;28;20029;-80
2023/07/11 00:31:27;;;;;;;1.25;0.30;;;19.10;99.90;;;;;;5008755;28;20116;-80
2023/07/11 00:33:54;;;;;;;1.83;0.30;;;19.00;99.90;;;;;;5005251;28;20061;-80
2023/07/11 00:36:21;;;;;;;1.77;0.40;;;19.00;99.90;;;;;;5021326;28;20037;-81
2023/07/11 00:38:46;;;;;;;1.35;0.30;;;19.00;99.90;;;;;;5025977;28;20026;-80
2023/07/11 00:41:12;;;;;;;2.03;0.40;;;19.00;99.90;;;;;;5023935;28;20022;-81
2023/07/11 00:43:38;;;;;;;1.80;0.40;;;19.00;99.90;;;;;;5023660;28;20561;-81
2023/07/11 00:46:12;;;;;;;1.63;0.40;;;18.90;99.90;;;;;;5007148;28;20037;-81
2023/07/11 00:48:44;;;;;;;1.10;0.30;;;18.90;99.90;;;;;;5023104;28;20033;-80
2023/07/11 00:51:13;;;;;;;1.33;0.30;;;18.90;99.90;;;;;;5018870;28;20017;-81
2023/07/11 00:53:41;;;;;;;2.63;0.40;;;18.90;99.90;;;;;;5019581;28;20201;-80
2023/07/11 00:56:11;;;;;;;;;;;18.90;99.90;;;;;;5009215;28;20113;-79
2023/07/11 00:58:40;;;;;;;2.42;0.40;;;18.90;99.90;;;;;;5023687;28;19913;-78
2023/07/11 01:01:07;;;;;;;1.67;0.30;;;18.90;99.90;;;;;;5020038;28;20137;-79
2023/07/11 01:03:32;;;;;;;1.77;0.30;;;18.90;99.90;;;;;;5009215;28;20029;-79
2023/07/11 01:05:59;;;;;;;1.40;0.40;;;18.90;99.90;;;;;;5025665;28;20032;-78
2023/07/11 01:08:25;;;;;;;3.53;0.47;;;18.90;99.90;;;;;;5022755;28;20042;-78
2023/07/11 01:10:51;;;;;;;1.20;0.30;;;18.90;99.90;;;;;;5006267;28;20021;-78
2023/07/11 01:13:17;;;;;;;1.58;0.30;;;18.90;99.90;;;;;;5001211;28;20068;-79
2023/07/11 01:15:43;;;;;;;1.02;0.22;;;18.80;99.90;;;;;;5019555;28;20083;-79
2023/07/11 01:18:09;;;;;;;0.93;0.30;;;18.80;99.90;;;;;;5004802;28;20124;-79
2023/07/11 01:20:35;;;;;;;1.90;0.40;;;18.80;99.90;;;;;;5025066;28;20478;-78
2023/07/11 01:23:02;;;;;;;0.82;0.30;;;18.80;99.90;;;;;;5021470;28;20108;-79
2023/07/11 01:25:28;;;;;;;1.50;0.30;;;18.80;99.90;;;;;;5017567;28;20025;-78
2023/07/11 01:27:54;;;;;;;1.35;0.30;;;18.70;99.90;;;;;;5003086;28;20625;-78
2023/07/11 01:30:22;;;;;;;1.13;0.30;;;18.70;99.90;;;;;;5008765;28;20025;-79
2023/07/11 01:32:49;;;;;;;1.52;0.30;;;18.70;99.90;;;;;;5017440;28;20033;-79
2023/07/11 01:35:18;;;;;;;1.00;0.30;;;18.70;99.90;;;;;;5004251;28;20025;-79
2023/07/11 01:37:44;;;;;;;2.35;0.30;;;18.70;99.90;;;;;;5018627;28;20029;-79
2023/07/11 01:40:10;;;;;;;0.98;0.30;;;18.70;99.90;;;;;;5002518;28;20018;-78
2023/07/11 01:42:36;;;;;;;2.42;0.30;;;18.70;99.90;;;;;;5018907;28;20030;-78
2023/07/11 01:45:03;;;;;;;1.23;0.30;;;18.70;99.90;;;;;;5001894;28;20037;-79
2023/07/11 01:47:28;;;;;;;1.52;0.30;;;18.60;99.90;;;;;;5025382;28;20034;-79
2023/07/11 01:49:54;;;;;;;2.17;0.40;;;18.60;99.90;;;;;;5016760;28;20021;-78
2023/07/11 01:52:22;;;;;;;1.50;0.50;;;18.60;99.90;;;;;;5002321;28;20096;-79
2023/07/11 01:54:48;;;;;;;1.20;0.40;;;18.60;99.90;;;;;;5004697;28;20493;-78
2023/07/11 01:57:17;;;;;;;0.82;0.25;;;18.50;99.90;;;;;;5003051;28;20099;-79
2023/07/11 01:59:43;;;;;;;2.90;0.40;;;18.50;99.90;;;;;;5021959;28;20029;-78
2023/07/11 02:02:10;;;;;;;2.10;0.40;;;18.50;99.90;;;;;;5017890;28;20046;-79
2023/07/11 02:04:37;;;;;;;1.88;0.40;;;18.50;99.90;;;;;;5023013;28;20061;-78
2023/07/11 02:07:04;;;;;;;1.27;0.40;;;18.40;99.90;;;;;;5004685;28;20461;-79
2023/07/11 02:09:30;;;;;;;1.13;0.40;;;18.40;99.90;;;;;;5022457;28;20502;-78
2023/07/11 02:11:57;;;;;;;1.10;0.40;;;18.40;99.90;;;;;;5002819;28;20180;-79
2023/07/11 02:14:24;;;;;;;2.42;0.40;;;18.40;99.90;;;;;;5013554;28;20105;-79
2023/07/11 02:16:51;;;;;;;1.20;0.40;;;18.40;99.90;;;;;;5018121;28;20025;-80
2023/07/11 02:19:20;;;;;;;1.58;0.50;;;18.30;99.90;;;;;;5015690;28;20484;-78
2023/07/11 02:21:46;;;;;;;2.13;0.40;;;18.20;99.90;;;;;;5016255;28;20029;-79
2023/07/11 02:24:14;;;;;;;1.95;0.47;;;18.20;99.90;;;;;;5008667;28;20032;-79
2023/07/11 02:26:40;;;;;;;1.63;0.40;;;18.10;99.90;;;;;;5020049;28;20022;-79
2023/07/11 02:29:07;;;;;;;2.05;0.40;;;18.00;99.90;;;;;;5016048;28;20451;-79
2023/07/11 02:31:34;;;;;;;2.30;0.40;;;18.00;99.90;;;;;;5005842;28;20431;-80
2023/07/11 02:34:01;;;;;;;1.95;0.50;;;18.00;99.90;;;;;;5027584;28;20044;-79
2023/07/11 02:36:27;;;;;;;1.80;0.40;;;18.00;99.90;;;;;;5021705;28;20026;-79
2023/07/11 02:38:53;;;;;;;1.35;0.50;;;18.00;99.90;;;;;;5023928;28;20532;-79
2023/07/11 02:41:19;;;;;;;2.40;0.47;;;17.90;99.90;;;;;;5022840;28;20034;-79
2023/07/11 02:43:47;;;;;;;1.23;0.40;;;17.90;99.90;;;;;;5030662;28;20115;-80
2023/07/11 02:46:14;;;;;;;1.20;0.40;;;17.90;99.90;;;;;;5022803;28;20061;-80
2023/07/11 02:48:40;;;;;;;1.45;0.35;;;17.90;99.90;;;;;;5012609;28;20485;-80
2023/07/11 02:51:06;;;;;;;2.03;0.45;;;17.90;99.90;;;;;;5018491;28;20084;-79
2023/07/11 02:53:32;;;;;;;2.05;0.40;;;17.80;99.90;;;;;;5022645;28;20033;-80
2023/07/11 02:55:57;;;;;;;3.30;0.50;;;17.80;99.90;;;;;;5004260;28;20474;-79
2023/07/11 02:58:24;;;;;;;1.92;0.30;;;17.80;99.90;;;;;;5024447;28;20080;-80
2023/07/11 03:00:51;;;;;;;1.27;0.40;;;17.80;99.90;;;;;;5028261;28;20382;-79
2023/07/11 03:03:17;;;;;;;2.33;0.40;;;17.80;99.90;;;;;;5028647;28;20044;-78
2023/07/11 03:05:44;;;;;;;0.88;0.40;;;17.80;99.90;;;;;;5011926;28;20534;-80
2023/07/11 03:08:10;;;;;;;1.80;0.50;;;17.90;99.90;;;;;;5008800;28;20025;-80
2023/07/11 03:10:35;;;;;;;1.20;0.40;;;17.80;99.90;;;;;;5024095;28;20509;-79
2023/07/11 03:13:01;;;;;;;1.58;0.40;;;17.80;99.90;;;;;;5024995;28;20435;-80
2023/07/11 03:15:27;;;;;;;1.08;0.40;;;17.90;99.90;;;;;;5004367;28;20072;-78
2023/07/11 03:17:52;;;;;;;2.85;0.50;;;17.80;99.90;;;;;;5020852;28;20406;-79
2023/07/11 03:20:18;;;;;;;1.65;0.50;;;17.80;99.90;;;;;;5016188;28;20141;-79
2023/07/11 03:22:44;;;;;;;1.30;0.40;;;17.80;99.90;;;;;;5018703;28;20065;-79
2023/07/11 03:25:09;;;;;;;1.27;0.50;;;17.80;99.90;;;;;;5019303;28;20033;-79
2023/07/11 03:27:35;;;;;;;2.05;0.40;;;17.80;99.90;;;;;;5012175;28;20038;-80
2023/07/11 03:30:01;;;;;;;2.45;0.40;;;17.70;99.90;;;;;;5008712;28;20021;-79
2023/07/11 03:32:27;;;;;;;1.23;0.50;;;17.80;99.90;;;;;;5026644;28;20169;-79
2023/07/11 03:34:52;;;;;;;2.45;0.40;;;17.70;99.90;;;;;;5025464;28;20018;-79
2023/07/11 03:37:18;;;;;;;2.13;0.50;;;17.70;99.90;;;;;;5026863;28;20030;-78
2023/07/11 03:39:44;;;;;;;2.08;0.50;;;17.70;99.90;;;;;;5020490;28;20192;-78
2023/07/11 03:42:10;;;;;;;1.20;0.45;;;17.70;99.90;;;;;;5003372;28;20056;-78
2023/07/11 03:44:42;;;;;;;1.77;0.40;;;17.80;99.90;;;;;;5009457;28;20037;-78
2023/07/11 03:47:08;;;;;;;1.50;0.45;;;17.80;99.90;;;;;;5034229;28;20036;-79
2023/07/11 03:49:34;;;;;;;2.60;0.52;;;17.80;99.90;;;;;;5021342;28;20107;-80
2023/07/11 03:52:00;;;;;;;1.60;0.50;;;17.80;99.90;;;;;;5027516;28;20065;-80
2023/07/11 03:54:26;;;;;;;2.55;0.45;;;17.80;99.90;;;;;;5026286;28;20037;-78
2023/07/11 03:56:53;;;;;;;1.35;0.52;;;17.80;99.90;;;;;;5018398;28;20446;-80
2023/07/11 03:59:19;;;;;;;1.70;0.50;;;17.80;99.90;;;;;;5017191;28;20080;-79
2023/07/11 04:01:46;;;;;;;1.75;0.50;;;17.90;99.90;;;;;;5004555;28;20159;-80
2023/07/11 04:04:12;;;;;;;3.53;0.60;;;17.80;99.90;;;;;;5004538;28;20483;-80
2023/07/11 04:06:38;;;;;;;3.47;0.50;;;17.80;99.90;;;;;;5017999;28;20038;-79
2023/07/11 04:09:03;;;;;;;1.60;0.40;;;17.80;99.90;;;;;;5006927;28;20026;-79
2023/07/11 04:11:29;;;;;;;1.98;0.50;;;17.90;99.90;;;;;;5028180;28;20049;-79
2023/07/11 04:13:55;;;;;;;1.35;0.50;;;17.90;99.90;;;;;;5026570;28;20556;-79
2023/07/11 04:16:21;;;;;;;1.98;0.40;;;17.90;99.90;;;;;;5005170;28;20021;-80
2023/07/11 04:18:46;;;;;;;3.67;0.60;;;17.90;99.90;;;;;;5021271;28;20033;-81
2023/07/11 04:21:12;;;;;;;2.58;0.50;;;17.90;99.90;;;;;;5016938;28;20025;-81
2023/07/11 04:23:38;;;;;;;2.10;0.50;;;17.90;99.90;;;;;;5004903;28;20056;-80
2023/07/11 04:26:03;;;;;;;1.30;0.40;;;18.00;99.90;;;;;;5021764;28;20026;-81
2023/07/11 04:28:30;;;;;;;3.42;0.50;;;18.00;99.90;;;;;;5009549;28;20033;-79
2023/07/11 04:30:56;;;;;;;1.60;0.43;;;18.10;99.90;;;;;;5009393;28;20025;-81
2023/07/11 04:33:22;;;;;;;3.33;0.47;;;18.10;99.90;;;;;;5021554;28;20136;-80
2023/07/11 04:35:48;;;;;;;1.40;0.50;;;18.20;99.90;;;;;;5019146;28;20093;-81
2023/07/11 04:38:13;;;;;;;2.10;0.45;;;18.20;99.90;;;;;;5018649;28;20032;-80
2023/07/11 04:40:39;;;;;;;1.65;0.40;;;18.30;99.90;;;;;;5021333;28;20456;-81
2023/07/11 04:43:05;;;;;;;2.10;0.38;;;18.40;99.90;;;;;;5023280;28;20394;-80
2023/07/11 04:45:32;;;;;;;2.00;0.40;;;18.50;99.90;;;;;;5026282;28;20068;-79
2023/07/11 04:48:00;;;;;;;2.58;0.50;;;18.50;99.90;;;;;;5003057;28;20548;-81
2023/07/11 04:50:26;;;;;;;1.90;0.47;;;18.60;99.90;;;;;;5019777;28;20029;-81
2023/07/11 04:52:51;;;;;;;1.17;0.40;;;18.80;99.90;;;;;;5018009;28;20030;-79
2023/07/11 04:55:17;;;;;;;2.38;0.50;;;18.90;99.90;;;;;;5019381;28;20585;-80
2023/07/11 04:57:43;;;;;;;3.42;0.60;;;19.10;99.90;;;;;;5009500;28;20386;-81
2023/07/11 05:00:10;;;;;;;1.65;0.50;;;19.20;99.90;;;;;;5017476;28;20022;-79
2023/07/11 05:02:36;;;;;;;2.28;0.52;;;19.30;99.90;;;;;;5022214;28;20041;-80
2023/07/11 05:05:02;;;;;;;2.05;0.50;;;19.40;99.90;;;;;;5013247;28;20034;-79
2023/07/11 05:07:28;;;;;;;2.60;0.50;;;19.60;99.90;;;;;;5010656;28;20114;-79
2023/07/11 05:09:53;;;;;;;3.47;0.50;;;19.80;99.90;;;;;;4997356;28;20033;-79
2023/07/11 05:12:19;;;;;;;1.85;0.47;;;19.90;99.90;;;;;;4997272;28;20049;-79
2023/07/11 05:14:45;;;;;;;1.92;0.60;;;20.00;99.90;;;;;;5028048;28;20029;-79
2023/07/11 05:17:11;;;;;;;2.50;0.50;;;20.10;99.90;;;;;;5022219;28;20040;-80
2023/07/11 05:19:37;;;;;;;2.85;0.50;;;20.10;99.90;;;;;;5015387;28;20165;-80
2023/07/11 05:22:02;;;;;;;2.38;0.32;;;20.10;99.90;;;;;;5000097;28;20038;-80
2023/07/11 05:24:30;;;;;;;3.55;0.50;;;20.20;99.90;;;;;;5020142;28;20442;-79
2023/07/11 05:26:55;;;;;;;2.75;0.40;;;20.30;99.90;;;;;;5016502;28;20098;-80
2023/07/11 05:29:22;;;;;;;2.65;0.50;;;20.30;99.90;;;;;;5016359;28;20029;-80
2023/07/11 05:31:47;;;;;;;4.22;0.40;;;20.40;99.90;;;;;;5017160;28;20477;-80
2023/07/11 05:34:13;;;;;;;1.38;0.40;;;20.50;99.90;;;;;;5023754;28;20046;-80
2023/07/11 05:36:39;;;;;;;1.83;0.50;;;20.60;99.90;;;;;;5017299;28;20030;-80
2023/07/11 05:39:11;;;;;;;2.17;0.43;;;20.70;99.90;;;;;;5020766;28;20037;-81
2023/07/11 05:41:44;;;;;;;1.65;0.40;;;20.70;99.90;;;;;;5022727;28;20085;-80
2023/07/11 05:44:11;;;;;;;1.20;0.38;;;20.80;99.90;;;;;;5005153;28;20415;-81
2023/07/11 05:46:38;;;;;;;1.50;0.35;;;20.90;99.90;;;;;;5017831;28;20401;-80
2023/07/11 05:49:04;;;;;;;2.67;0.40;;;21.00;99.90;;;;;;5023779;28;20056;-78
2023/07/11 05:51:30;;;;;;;1.45;0.38;;;21.10;99.90;;;;;;5018710;28;20666;-80
2023/07/11 05:53:56;;;;;;;2.20;0.40;;;21.30;99.90;;;;;;5023036;28;20344;-78
2023/07/11 05:56:22;;;;;;;1.35;0.40;;;21.30;99.90;;;;;;5019950;28;20025;-80
2023/07/11 05:58:49;;;;;;;1.45;0.32;;;21.50;99.90;;;;;;5016803;28;20079;-81
2023/07/11 06:01:17;;;;;;;2.33;0.35;;;21.60;99.90;;;;;;5000902;28;20037;-80
2023/07/11 06:03:46;;;;;;;2.10;0.30;;;21.70;99.90;;;;;;5017880;28;20455;-79
2023/07/11 06:06:14;;;;;;;1.73;0.40;;;22.00;99.90;;;;;;5008353;28;20034;-79
2023/07/11 06:08:40;;;;;;;1.25;0.40;;;22.10;99.90;;;;;;5022684;28;20474;-81
2023/07/11 06:11:07;;;;;;;2.95;0.40;;;22.10;99.90;;;;;;5018909;28;20025;-81
2023/07/11 06:13:36;;;;;;;2.38;0.40;;;22.20;99.90;;;;;;5026699;28;20033;-81
2023/07/11 06:16:06;;;;;;;1.33;0.40;;;22.50;99.90;;;;;;5007605;28;20383;-81
2023/07/11 06:18:37;;;;;;;2.30;0.50;;;22.70;99.90;;;;;;5021911;28;20141;-80
2023/07/11 06:21:07;;;;;;;1.55;0.50;;;22.80;99.90;;;;;;5006235;28;20025;-81
2023/07/11 06:23:33;;;;;;;2.05;0.40;;;23.10;99.90;;;;;;5009539;28;20029;-81
2023/07/11 06:25:59;;;;;;;1.13;0.40;;;23.20;99.90;;;;;;5022175;28;20125;-81
2023/07/11 06:28:26;;;;;;;1.48;0.30;;;23.50;99.90;;;;;;5007186;28;20088;-81
2023/07/11 06:30:56;;;;;;;1.83;0.30;;;23.60;99.90;;;;;;5020003;28;20379;-81
2023/07/11 06:33:22;;;;;;;2.83;0.40;;;23.70;99.90;;;;;;5022145;28;20037;-80
2023/07/11 06:35:49;;;;;;;1.65;0.40;;;23.80;99.90;;;;;;5024266;28;20030;-81
2023/07/11 06:38:16;;;;;;;1.23;0.30;;;23.90;99.90;;;;;;5009155;28;20446;-81
2023/07/11 06:40:53;;;;;;;1.30;0.30;;;23.90;99.90;;;;;;5019376;28;20075;-81
2023/07/11 06:43:21;;;;;;;3.35;0.40;;;24.10;99.90;;;;;;5006093;28;20033;-81
2023/07/11 06:45:48;;;;;;;1.75;0.30;;;24.30;99.90;;;;;;5009862;28;20037;-80
2023/07/11 06:48:18;;;;;;;1.00;0.20;;;24.20;99.90;;;;;;5016770;28;20018;-81
2023/07/11 06:50:52;;;;;;;1.15;0.30;;;24.40;99.90;;;;;;5022063;28;20057;-82
2023/07/11 06:53:22;;;;;;;2.15;0.30;;;24.50;99.90;;;;;;5003376;28;20509;-81
2023/07/11 06:55:50;;;;;;;1.00;0.30;;;24.60;99.90;;;;;;5020063;28;20018;-81
2023/07/11 06:58:17;;;;;;;2.28;0.30;;;24.80;99.90;;;;;;5013954;28;20413;-81
2023/07/11 07:00:43;;;;;;;1.00;0.30;;;25.00;99.90;;;;;;5018953;28;20382;-80
2023/07/11 07:03:13;;;;;;;1.00;0.30;;;25.00;99.90;;;;;;5000460;28;20073;-82
2023/07/11 07:06:04;;;;;;;1.23;0.30;;;25.10;99.90;;;;;;4998870;28;20029;-81
2023/07/11 07:08:30;;;;;;;2.58;0.50;;;25.10;99.90;;;;;;5005741;28;20482;-81
2023/07/11 07:10:56;;;;;;;2.10;0.43;;;25.20;99.90;;;;;;5000660;28;20029;-82
2023/07/11 07:13:23;;;;;;;2.03;0.40;;;25.30;99.90;;;;;;5019862;28;20029;-82
2023/07/11 07:15:52;;;;;;;2.60;0.30;;;25.20;99.90;;;;;;5001358;28;20390;-82
2023/07/11 07:18:18;;;;;;;1.38;0.30;;;25.60;99.90;;;;;;5017227;28;20041;-81
2023/07/11 07:20:45;;;;;;;0.85;0.20;;;25.70;99.90;;;;;;5016030;28;20027;-82
2023/07/11 07:23:11;;;;;;;1.38;0.30;;;25.90;99.90;;;;;;5013268;28;20029;-81
2023/07/11 07:25:36;;;;;;;1.75;0.30;;;25.90;99.90;;;;;;5018429;28;20034;-82
2023/07/11 07:28:03;;;;;;;1.30;0.40;;;26.10;99.90;;;;;;5017862;28;20034;-82
2023/07/11 07:30:29;;;;;;;3.63;0.50;;;26.10;99.90;;;;;;5015805;28;20394;-82
2023/07/11 07:32:54;;;;;;;1.50;0.30;;;26.20;99.90;;;;;;5000947;28;20057;-81
2023/07/11 07:35:20;;;;;;;1.25;0.30;;;26.30;99.90;;;;;;5014493;28;20030;-82
2023/07/11 07:37:47;;;;;;;2.70;0.40;;;26.60;99.90;;;;;;4996104;28;20030;-82
2023/07/11 07:40:13;;;;;;;2.85;0.40;;;26.70;99.90;;;;;;5016028;28;20033;-82
2023/07/11 07:42:39;;;;;;;2.92;0.40;;;26.80;99.90;;;;;;4994720;28;20041;-82
2023/07/11 07:45:05;;;;;;;1.15;0.30;;;26.60;99.90;;;;;;5000289;28;20033;-82
2023/07/11 07:47:31;;;;;;;2.85;0.40;;;26.70;99.90;;;;;;5016148;28;20481;-82
2023/07/11 07:49:57;;;;;;;3.78;0.43;;;26.80;99.90;;;;;;5001209;28;20025;-82
2023/07/11 07:52:23;;;;;;;1.80;0.40;;;26.90;99.90;;;;;;5010820;28;20042;-83
2023/07/11 07:54:49;;;;;;;1.17;0.30;;;26.70;99.90;;;;;;5013274;28;20029;-81
2023/07/11 07:57:15;;;;;;;2.15;0.50;;;27.30;99.90;;;;;;5011984;28;20040;-82
2023/07/11 07:59:40;;;;;;;2.13;0.38;;;27.60;99.90;;;;;;5019356;28;20390;-82
2023/07/11 08:02:11;;;;;;;0.90;0.40;;;27.60;99.90;;;;;;5013900;28;20207;-82
2023/07/11 08:04:37;;;;;;;4.65;0.40;;;27.60;99.90;;;;;;5017668;28;20025;-82
2023/07/11 08:07:03;;;;;;;1.30;0.32;;;27.50;99.90;;;;;;5017325;28;20037;-83
2023/07/11 08:09:29;;;;;;;1.25;0.30;;;27.60;99.90;;;;;;5004417;28;20466;-83
2023/07/11 08:12:03;;;;;;;1.70;0.40;;;27.80;99.90;;;;;;5015865;28;20033;-82
2023/07/11 08:14:28;;;;;;;1.17;0.40;;;27.90;99.90;;;;;;5019154;28;20548;-82
2023/07/11 08:16:54;;;;;;;2.85;0.45;;;27.70;99.90;;;;;;5015110;28;20040;-82
2023/07/11 08:19:20;;;;;;;1.70;0.30;;;27.80;99.90;;;;;;4997998;28;20427;-82
2023/07/11 08:21:45;;;;;;;2.28;0.40;;;28.20;99.90;;;;;;5011430;28;20025;-82
2023/07/11 08:24:12;;;;;;;1.35;0.30;;;27.70;99.90;;;;;;5013079;28;20050;-82
2023/07/11 08:26:38;;;;;;;2.47;0.35;;;28.10;99.90;;;;;;5013291;28;20034;-83
2023/07/11 08:29:04;;;;;;;1.40;0.52;;;28.40;99.90;;;;;;5013753;28;20409;-83
2023/07/11 08:31:30;;;;;;;1.90;0.30;;;28.50;99.90;;;;;;5002196;28;20036;-84
2023/07/11 08:33:56;;;;;;;2.15;0.40;;;28.20;99.90;;;;;;5003037;28;20398;-82
2023/07/11 08:36:24;;;;;;;1.17;0.30;;;28.30;99.90;;;;;;5019360;28;20029;-83
2023/07/11 08:38:50;;;;;;;2.97;0.30;;;28.70;99.90;;;;;;5011560;28;20087;-83
2023/07/11 08:41:47;;;;;;;1.63;0.40;;;28.60;99.90;;;;;;4998900;28;20025;-83
2023/07/11 08:44:15;;;;;;;3.83;0.40;;;28.10;99.90;;;;;;5013818;28;20029;-82
2023/07/11 08:47:03;;;;;;;0.80;0.30;;;28.60;99.90;;;;;;5012881;28;20500;-82
2023/07/11 08:49:35;;;;;;;1.05;0.30;;;28.80;99.90;;;;;;5027513;28;20107;-83
2023/07/11 08:52:02;;;;;;;2.92;0.40;;;29.00;99.90;;;;;;5014631;28;20029;-83
2023/07/11 08:54:33;;;;;;;2.15;0.32;;;28.90;99.90;;;;;;5011281;28;20056;-80
2023/07/11 08:56:59;;;;;;;1.17;0.30;;;28.70;99.90;;;;;;5011924;28;20026;-80
2023/07/11 08:59:33;;;;;;;1.55;0.30;;;28.60;99.90;;;;;;5001586;28;20428;-80
2023/07/11 09:02:08;;;;;;;1.25;0.32;;;28.60;99.90;;;;;;5014670;28;20111;-83
2023/07/11 09:04:48;;;;;;;2.20;0.38;;;29.10;99.90;;;;;;5014076;28;20072;-83
2023/07/11 09:07:35;;;;;;;1.98;0.30;;;28.60;99.90;;;;;;5010128;28;20029;-83
2023/07/11 09:10:01;;;;;;;1.70;0.30;;;28.30;99.90;;;;;;4995430;28;20438;-82
2023/07/11 09:12:51;;;;;;;0.80;0.30;;;28.10;99.90;;;;;;5013814;28;20069;-82
2023/07/11 09:15:33;;;;;;;1.70;0.30;;;28.50;99.90;;;;;;4999563;28;20470;-82
2023/07/11 09:18:17;;;;;;;2.50;0.30;;;29.10;99.90;;;;;;5012523;28;20022;-83
2023/07/11 09:20:50;;;;;;;0.98;0.30;;;28.80;99.90;;;;;;5001510;28;20498;-83
2023/07/11 09:23:27;;;;;;;2.63;0.40;;;28.60;99.90;;;;;;5012439;28;20402;-82
2023/07/11 09:25:58;;;;;;;0.88;0.30;;;28.00;99.90;;;;;;5010389;28;20030;-83
2023/07/11 09:28:27;;;;;;;2.72;0.30;;;28.40;99.90;;;;;;5010881;28;20505;-83
2023/07/11 09:30:58;;;;;;;1.33;0.30;;;29.20;99.90;;;;;;5014429;28;20030;-82
2023/07/11 09:33:30;;;;;;;1.02;0.30;;;29.20;99.90;;;;;;5016922;28;20555;-80
2023/07/11 09:35:56;;;;;;;1.52;0.40;;;29.20;99.90;;;;;;5010979;28;20025;-79
2023/07/11 09:38:25;;;;;;;4.72;0.40;;;28.90;99.90;;;;;;5012803;28;20030;-84
2023/07/11 09:41:23;;;;;;;2.10;0.40;;;27.90;99.90;;;;;;5013398;28;20029;-83
2023/07/11 09:43:49;;;;;;;3.20;0.38;;;26.90;99.90;;;;;;5008958;28;20041;-83
2023/07/11 09:46:20;;;;;;;2.45;0.40;;;26.90;99.90;;;;;;5010796;28;20048;-85
2023/07/11 09:48:50;;;;;;;3.50;0.50;;;26.70;99.90;;;;;;4999277;28;20032;-84
2023/07/11 09:51:47;;;;;;;2.08;0.43;;;26.70;99.90;;;;;;4999805;28;20607;-83
2023/07/11 09:54:21;;;;;;;1.30;0.40;;;27.10;99.90;;;;;;5011200;28;20497;-83
2023/07/11 09:56:48;;;;;;;4.13;0.45;;;27.30;99.90;;;;;;5000115;28;20021;-83
2023/07/11 09:59:16;;;;;;;2.00;0.40;;;27.50;99.90;;;;;;4995210;28;20037;-82
2023/07/11 10:01:42;;;;;;;1.95;0.40;;;28.00;99.90;;;;;;4995623;28;20103;-82
2023/07/11 10:04:15;;;;;;;1.20;0.30;;;29.00;99.90;;;;;;4998028;28;20074;-82
2023/07/11 10:06:44;;;;;;;1.23;0.40;;;29.50;99.90;;;;;;5027693;28;20021;-84
2023/07/11 10:09:26;;;;;;;2.08;0.50;;;28.30;99.90;;;;;;5000375;28;20029;-83
2023/07/11 10:11:59;;;;;;;1.10;0.30;;;27.70;99.90;;;;;;5000626;28;20037;-82
2023/07/11 10:14:39;;;;;;;2.20;0.30;;;28.60;99.90;;;;;;5000548;28;20483;-82
2023/07/11 10:17:16;;;;;;;1.48;0.22;;;29.40;99.90;;;;;;5012365;28;20057;-83
2023/07/11 10:19:42;;;;;;;3.28;0.30;;;29.40;99.90;;;;;;5011159;28;20034;-82
2023/07/11 10:22:16;;;;;;;2.08;0.40;;;28.20;99.90;;;;;;5010888;28;20022;-82
2023/07/11 10:24:42;;;;;;;1.75;0.20;;;28.40;99.90;;;;;;5015053;28;20191;-82
2023/07/11 10:27:13;;;;;;;2.50;0.20;;;28.70;99.90;;;;;;5028659;28;20272;-82
2023/07/11 10:29:51;;;;;;;1.85;0.20;;;29.50;99.90;;;;;;5013728;28;20029;-82
2023/07/11 10:32:38;;;;;;;1.25;0.22;;;29.60;99.90;;;;;;4997549;28;20121;-80
2023/07/11 10:35:11;;;;;;;2.15;0.28;;;30.10;99.90;;;;;;4995790;28;20099;-79
2023/07/11 10:37:41;;;;;;;3.00;0.30;;;30.30;99.90;;;;;;4996568;28;20044;-79
2023/07/11 10:40:20;;;;;;;1.40;0.20;;;29.10;99.90;;;;;;5014885;28;20030;-80
2023/07/11 10:43:06;;;;;;;1.33;0.40;;;29.80;99.90;;;;;;5010828;28;20036;-80
2023/07/11 10:45:39;;;;;;;1.63;0.20;;;30.00;99.90;;;;;;5016345;28;20029;-79
2023/07/11 10:48:32;;;;;;;1.48;0.20;;;30.30;99.90;;;;;;5011045;28;20038;-83
2023/07/11 10:51:16;;;;;;;2.10;0.30;;;30.80;99.90;;;;;;5004740;28;20048;-80
2023/07/11 10:53:47;;;;;;;2.05;0.30;;;31.10;99.90;;;;;;5017724;28;20271;-81
2023/07/11 10:56:19;;;;;;;1.95;0.20;;;30.60;99.90;;;;;;5003776;28;20378;-80
2023/07/11 10:58:45;;;;;;;1.80;0.20;;;30.40;99.90;;;;;;5017087;28;20033;-80
2023/07/11 11:01:29;;;;;;;1.83;0.30;;;30.40;99.90;;;;;;5014495;28;20050;-81
2023/07/11 11:04:21;;;;;;;2.70;0.40;;;29.50;99.90;;;;;;5018072;28;20038;-81
2023/07/11 11:06:57;;;;;;;1.17;0.30;;;29.30;99.90;;;;;;4999105;28;20104;-81
2023/07/11 11:09:50;;;;;;;0.85;0.20;;;30.20;99.90;;;;;;5014647;28;20045;-80
2023/07/11 11:12:34;;;;;;;1.27;0.32;;;30.30;99.30;;;;;;5016771;28;20121;-80
2023/07/11 11:15:27;;;;;;;1.13;0.30;;;29.20;99.90;;;;;;5017826;28;20340;-81
2023/07/11 11:18:24;;;;;;;0.70;0.20;;;29.10;99.90;;;;;;5015306;28;20069;-80
2023/07/11 11:21:04;;;;;;;0.93;0.20;;;30.20;99.90;;;;;;5015289;28;20065;-82
2023/07/11 11:23:36;;;;;;;2.08;0.30;;;30.60;99.90;;;;;;5018736;28;20034;-83
2023/07/11 11:26:27;;;;;;;0.80;0.28;;;30.30;99.70;;;;;;5016728;28;20670;-80
2023/07/11 11:29:18;;;;;;;0.98;0.20;;;30.50;99.90;;;;;;5018856;28;20026;-80
2023/07/11 11:32:02;;;;;;;0.90;0.20;;;30.20;99.90;;;;;;5003264;28;20046;-82
2023/07/11 11:34:54;;;;;;;2.28;0.30;;;30.00;99.10;;;;;;4999658;28;20402;-81
2023/07/11 11:37:53;;;;;;;1.85;0.30;;;29.90;99.90;;;;;;5003944;28;20033;-81
2023/07/11 11:40:21;;;;;;;;;;;30.50;99.30;;;;;;5013054;28;20040;-81
2023/07/11 11:42:56;;;;;;;1.60;0.20;;;30.50;99.70;;;;;;4998804;28;20369;-81
2023/07/11 11:45:23;;;;;;;1.88;0.30;;;30.70;99.90;;;;;;5016322;28;20037;-81
2023/07/11 11:47:50;;;;;;;1.33;0.30;;;30.80;99.80;;;;;;5020469;28;20506;-81
2023/07/11 11:50:22;;;;;;;0.98;0.30;;;30.90;98.60;;;;;;5013446;28;20117;-82
2023/07/11 11:53:18;;;;;;;1.10;0.20;;;30.40;99.10;;;;;;5014244;28;20045;-82
2023/07/11 11:56:05;;;;;;;3.15;0.40;;;30.60;98.60;;;;;;5013227;28;20492;-81
2023/07/11 11:58:34;;;;;;;2.25;0.30;;;30.50;99.40;;;;;;5012875;28;20033;-81
2023/07/11 12:01:00;;;;;;;1.10;0.30;;;30.90;98.60;;;;;;5012306;28;20112;-82
2023/07/11 12:03:29;;;;;;;1.65;0.30;;;30.60;99.40;;;;;;5017822;28;20030;-80
2023/07/11 12:05:58;;;;;;;1.50;0.30;;;30.30;99.50;;;;;;5000909;28;20119;-81
2023/07/11 12:08:36;;;;;;;1.55;0.30;;;30.30;99.90;;;;;;5016803;28;20096;-81
2023/07/11 12:11:17;;;;;;;1.00;0.20;;;30.30;99.90;;;;;;5014896;28;20038;-81
2023/07/11 12:14:04;;;;;;;1.60;0.30;;;30.30;99.90;;;;;;4999786;28;20489;-80
2023/07/11 12:16:32;;;;;;;1.35;0.40;;;30.20;99.70;;;;;;5004254;28;20030;-80
2023/07/11 12:19:02;;;;;;;1.23;0.30;;;30.10;99.70;;;;;;4998992;28;20502;-81
2023/07/11 12:21:40;;;;;;;1.02;0.30;;;30.40;99.70;;;;;;4997832;28;20118;-81
2023/07/11 12:24:34;;;;;;;1.55;0.30;;;30.40;99.90;;;;;;5014103;28;20065;-80
2023/07/11 12:27:18;;;;;;;2.00;0.30;;;30.30;99.90;;;;;;5020972;28;20033;-81
2023/07/11 12:29:49;;;;;;;1.10;0.20;;;30.30;99.90;;;;;;4998735;28;20174;-80
2023/07/11 12:32:33;;;;;;;1.95;0.50;;;30.80;99.90;;;;;;5019416;28;20116;-82
2023/07/11 12:35:04;;;;;;;1.67;0.70;;;30.70;99.90;;;;;;5017806;28;20033;-80
2023/07/11 12:38:01;;;;;;;1.10;0.30;;;30.30;99.90;;;;;;5013227;28;20017;-81
2023/07/11 12:40:45;;;;;;;0.90;0.30;;;30.20;99.60;;;;;;5015652;28;20026;-81
2023/07/11 12:43:36;;;;;;;1.13;0.28;;;30.50;99.90;;;;;;5011945;28;20388;-81
2023/07/11 12:46:13;;;;;;;0.95;0.30;;;31.00;99.80;;;;;;5012811;28;20037;-81
2023/07/11 12:48:49;;;;;;;1.75;0.30;;;30.80;99.90;;;;;;5011609;28;20040;-81
2023/07/11 12:51:27;;;;;;;4.47;0.50;;;30.20;99.80;;;;;;5008851;28;20123;-80
2023/07/11 12:54:00;;;;;;;1.83;0.40;;;29.90;99.60;;;;;;4999970;28;20042;-82
2023/07/11 12:56:29;;;;;;;0.80;0.20;;;30.10;99.90;;;;;;5012537;28;20126;-81
2023/07/11 12:58:54;;;;;;;2.38;0.40;;;30.00;99.90;;;;;;5016397;28;20036;-81
2023/07/11 13:01:20;;;;;;;1.65;0.35;;;29.90;99.90;;;;;;4996561;28;20113;-81
2023/07/11 13:03:46;;;;;;;3.40;0.40;;;30.30;99.90;;;;;;5016274;28;20029;-82